Time;durP1;ratioP1;P1;durP2;ratioP2;P2;SDS_P1;SDS_P2;PMS_P1;PMS_P2;Temp;Humidity;BMP_temperature;BMP_pressure;BME280_temperature;BME280_humidity;BME280_pressure;Samples;Min_cycle;Max_cycle;Signal;HPM_P1;HPM_P2
2022/09/27 06:05:33;;;;;;;3.50;1.70;;;;;;;;;;10510454;28;20060;-83
2022/09/27 06:22:25;;;;;;;1.90;1.30;;;;;;;;;;10454265;28;20475;-84
2022/09/27 06:27:55;;;;;;;4.55;1.48;;;;;;;;;;10510845;28;20016;-85
2022/09/27 06:33:06;;;;;;;;;;;;;;;;;;9849800;28;16627187;-84
2022/09/27 06:38:14;;;;;;;3.30;1.30;;;;;;;;;;10425459;28;19910;-84
2022/09/27 06:43:48;;;;;;;2.78;1.25;;;;;;;;;;10332144;28;20032;-84
2022/09/27 06:49:25;;;;;;;3.15;1.55;;;;;;;;;;10414749;28;20484;-83
2022/09/27 06:54:47;;;;;;;4.13;1.30;;;;;;;;;;10417150;28;20105;-83
2022/09/27 07:05:54;;;;;;;4.05;1.90;;;;;;;;;;10278190;28;20035;-83
2022/09/27 07:11:01;;;;;;;2.40;1.30;;;;;;;;;;10361527;28;20080;-82
2022/09/27 07:16:40;;;;;;;;;;;;;;;;;;;;;
2022/09/27 07:21:46;;;;;;;3.00;1.00;;;;;;;;;;10384033;28;20047;-86
2022/09/27 07:27:13;;;;;;;;;;;;;;;;;;;;;
2022/09/27 07:32:15;;;;;;;3.30;1.95;;;;;;;;;;10386158;28;20034;-86
2022/09/27 07:38:03;;;;;;;;;;;;;;;;;;;;;
2022/09/27 07:48:57;;;;;;;11.05;8.48;;;;;;;;;;10324632;28;20126;-86
2022/09/27 07:54:00;;;;;;;6.18;4.47;;;;;;;;;;10287163;28;20493;-87
2022/09/27 07:59:10;;;;;;;13.60;10.10;;;;;;;;;;10291362;28;20058;-89
2022/09/27 08:04:32;;;;;;;11.97;8.93;;;;;;;;;;10377911;28;20365;-88
2022/09/27 08:09:45;;;;;;;10.98;8.25;;;;;;;;;;10384261;28;20108;-87
2022/09/27 08:15:00;;;;;;;4.63;2.72;;;;;;;;;;10384026;28;20037;-89
2022/09/27 08:20:05;;;;;;;7.40;5.05;;;;;;;;;;10381807;28;20040;-88
2022/09/27 08:25:07;;;;;;;9.43;6.82;;;;;;;;;;10383711;28;20022;-86
2022/09/27 08:30:14;;;;;;;7.18;4.72;;;;;;;;;;10386012;28;20436;-87
2022/09/27 08:35:16;;;;;;;6.28;3.50;;;;;;;;;;10385296;28;20373;-87
2022/09/27 08:40:17;;;;;;;4.53;3.28;;;;;;;;;;10381866;28;20026;-89
2022/09/27 08:45:24;;;;;;;7.63;3.80;;;;;;;;;;10382051;28;20169;-88
2022/09/27 08:50:28;;;;;;;5.18;3.25;;;;;;;;;;10402062;28;20060;-85
2022/09/27 08:55:29;;;;;;;4.70;2.15;;;;;;;;;;10383258;28;20034;-87
2022/09/27 09:00:30;;;;;;;2.88;2.33;;;;;;;;;;10391473;28;20068;-86
2022/09/27 09:05:57;;;;;;;7.82;4.53;;;;;;;;;;10385416;28;20033;-87
2022/09/27 09:23:05;;;;;;;;;;;;;;;;;;;;;
2022/09/27 09:28:16;;;;;;;3.00;1.77;;;;;;;;;;10400619;28;20037;-87
2022/09/27 09:33:23;;;;;;;3.30;1.73;;;;;;;;;;10392011;28;20449;-86
2022/09/27 09:38:28;;;;;;;4.95;3.25;;;;;;;;;;10390489;28;20124;-86
2022/09/27 09:44:18;;;;;;;;;;;;;;;;;;;;;
2022/09/27 10:22:04;;;;;;;3.10;2.10;;;;;;;;;;2727345;23;20453;-85
2022/09/27 10:27:05;;;;;;;4.10;3.00;;;;;;;;;;10263188;29;20043;-85
2022/09/27 10:32:09;;;;;;;;;;;;;;;;;;10262242;29;20054;-84
2022/09/27 10:37:16;;;;;;;6.50;2.40;;;;;;;;;;10259097;29;19906;-86
2022/09/27 10:42:40;;;;;;;3.67;1.98;;;;;;;;;;10328231;23;20098;-86
2022/09/27 10:48:25;;;;;;;;;;;;;;;;;;;;;
2022/09/27 10:59:35;;;;;;;;;;;;;;;;;;;;;
2022/09/27 11:05:21;;;;;;;4.85;3.05;;;;;;;;;;10338992;28;20039;-87
2022/09/27 11:10:30;;;;;;;4.65;2.13;;;;;;;;;;10313387;28;20034;-86
2022/09/27 11:55:19;;;;;;;3.38;1.65;;;;;;;;;;10313569;28;20118;-84
2022/09/27 12:06:46;;;;;;;2.97;1.85;;;;;;;;;;10192348;29;20044;-84
2022/09/27 12:12:26;;;;;;;3.08;1.80;;;;;;;;;;10192004;29;20044;-84
2022/09/27 16:20:44;;;;;;;3.08;0.80;;;;;;;;;;10308060;28;20042;-83
2022/09/27 17:59:17;;;;;;;2.65;1.25;;;;;;;;;;10389695;28;20038;-87
2022/09/27 18:04:37;;;;;;;2.75;0.90;;;;;;;;;;10367215;28;20073;-87
2022/09/27 18:15:30;;;;;;;3.37;2.07;;;;;;;;;;10384444;28;20030;-87
2022/09/27 18:21:10;;;;;;;2.78;1.17;;;;;;;;;;10350891;28;20049;-87
2022/09/27 18:32:35;;;;;;;3.30;1.40;;;;;;;;;;10311305;28;20027;-86
2022/09/27 18:49:22;;;;;;;2.35;1.50;;;;;;;;;;10331924;28;20084;-86
2022/09/27 18:54:54;;;;;;;2.72;1.65;;;;;;;;;;10383463;28;20102;-86
